createdAt,value
2018-07-19T00:01:18.172Z,74.94
2018-07-19T00:03:48.331Z,74.13
2018-07-19T00:06:18.894Z,74.41
2018-07-19T00:08:49.447Z,73.71
2018-07-19T00:11:19.958Z,73.97
2018-07-19T00:13:50.835Z,74.93
2018-07-19T00:16:22.541Z,75.46
2018-07-19T00:18:53.524Z,76.08
2018-07-19T00:21:23.932Z,76.22
2018-07-19T00:23:54.393Z,76.15
2018-07-19T00:26:25.649Z,76.64
2018-07-19T00:28:56.215Z,76.40
2018-07-19T00:31:26.750Z,77.83
2018-07-19T00:33:57.888Z,79.64
2018-07-19T00:36:29.336Z,80.84
2018-07-19T00:38:59.976Z,81.84
2018-07-19T00:41:30.552Z,82.10
2018-07-19T00:44:01.112Z,81.25
2018-07-19T00:46:31.718Z,80.67
2018-07-19T00:49:02.324Z,81.77
2018-07-19T00:51:32.933Z,81.86
2018-07-19T00:54:04.672Z,82.70
2018-07-19T00:56:35.589Z,82.88
2018-07-19T00:59:06.242Z,80.54
2018-07-19T01:01:36.690Z,78.63
2018-07-19T01:04:07.610Z,78.25
2018-07-19T01:06:38.160Z,79.02
2018-07-19T01:09:11.730Z,79.05
2018-07-19T01:11:43.066Z,80.18
2018-07-19T01:14:13.668Z,81.34
2018-07-19T01:16:44.554Z,80.30
2018-07-19T01:19:15.157Z,78.23
2018-07-19T01:21:45.702Z,77.62
2018-07-19T01:24:16.269Z,80.01
2018-07-19T01:26:46.878Z,81.27
2018-07-19T01:29:17.085Z,82.99
2018-07-19T01:31:48.407Z,80.59
2018-07-19T01:34:18.973Z,79.91
2018-07-19T01:36:49.725Z,78.07
2018-07-19T01:39:20.352Z,77.28
2018-07-19T01:42:33.340Z,77.49
2018-07-19T01:45:05.164Z,77.50
2018-07-19T01:47:36.515Z,78.75
2018-07-19T01:50:08.812Z,80.20
2018-07-19T01:52:39.662Z,81.73
2018-07-19T01:55:10.356Z,83.40
2018-07-19T01:57:40.891Z,83.97
2018-07-19T02:00:11.603Z,84.04
2018-07-19T02:02:42.272Z,80.41
2018-07-19T02:05:13.727Z,80.02
2018-07-19T02:07:44.761Z,80.83
2018-07-19T02:10:15.568Z,80.70
2018-07-19T02:12:45.987Z,80.42
2018-07-19T02:15:16.521Z,79.91
2018-07-19T02:17:47.198Z,83.19
2018-07-19T02:20:17.750Z,83.40
2018-07-19T02:22:48.342Z,83.86
2018-07-19T02:25:18.962Z,84.85
2018-07-19T02:27:50.071Z,85.19
2018-07-19T02:30:20.533Z,85.15
2018-07-19T02:32:51.050Z,85.36
2018-07-19T02:35:21.500Z,85.10
2018-07-19T02:37:52.202Z,85.51
2018-07-19T02:40:22.974Z,85.22
2018-07-19T02:42:53.489Z,81.87
2018-07-19T02:45:24.006Z,81.18
2018-07-19T02:47:54.603Z,80.80
2018-07-19T02:50:25.603Z,80.84
2018-07-19T02:52:56.921Z,80.25
2018-07-19T02:55:27.381Z,80.66
2018-07-19T02:57:57.795Z,81.58
2018-07-19T03:00:28.373Z,82.64
2018-07-19T03:02:59.029Z,83.75
2018-07-19T03:05:29.721Z,84.97
2018-07-19T03:08:00.042Z,85.49
2018-07-19T03:10:30.527Z,86.40
2018-07-19T03:13:01.575Z,86.06
2018-07-19T03:15:32.810Z,86.16
2018-07-19T03:18:03.306Z,84.02
2018-07-19T03:20:34.002Z,80.66
2018-07-19T03:23:04.623Z,79.87
2018-07-19T03:25:35.318Z,80.40
2018-07-19T03:28:05.836Z,79.84
2018-07-19T03:30:37.017Z,79.56
2018-07-19T03:33:08.576Z,79.64
2018-07-19T03:35:39.132Z,79.47
2018-07-19T03:38:09.647Z,79.83
2018-07-19T03:40:40.161Z,81.89
2018-07-19T03:43:11.468Z,83.99
2018-07-19T03:45:41.950Z,84.71
2018-07-19T03:48:12.576Z,85.76
2018-07-19T03:50:44.028Z,86.24
2018-07-19T03:53:15.213Z,85.62
2018-07-19T03:55:45.882Z,85.80
2018-07-19T03:58:16.563Z,86.06
2018-07-19T04:00:47.328Z,86.49
2018-07-19T04:03:17.915Z,85.74
2018-07-19T04:05:48.422Z,83.33
2018-07-19T04:08:19.467Z,80.15
2018-07-19T04:10:50.713Z,78.08
2018-07-19T04:13:21.678Z,77.61
2018-07-19T04:15:52.208Z,77.03
2018-07-19T04:18:22.826Z,77.59
2018-07-19T04:20:52.762Z,76.58
2018-07-19T04:23:23.311Z,76.28
2018-07-19T04:25:53.882Z,76.15
2018-07-19T04:28:24.436Z,76.33
2018-07-19T04:30:56.055Z,76.28
2018-07-19T04:33:26.802Z,76.09
2018-07-19T04:35:57.365Z,76.40
2018-07-19T04:38:27.973Z,78.73
2018-07-19T04:40:58.518Z,79.94
2018-07-19T04:43:29.319Z,80.60
2018-07-19T04:45:59.866Z,80.66
2018-07-19T04:48:30.632Z,80.90
2018-07-19T04:51:02.418Z,80.54
2018-07-19T04:53:33.053Z,80.81
2018-07-19T04:56:03.465Z,80.69
2018-07-19T04:58:34.223Z,80.09
2018-07-19T05:01:04.928Z,79.67
2018-07-19T05:03:35.633Z,79.51
2018-07-19T05:06:06.304Z,79.59
2018-07-19T05:08:37.744Z,79.59
2018-07-19T05:11:08.809Z,79.30
2018-07-19T05:13:39.013Z,78.30
2018-07-19T05:16:09.903Z,77.15
2018-07-19T05:18:40.737Z,77.92
2018-07-19T05:21:11.434Z,75.87
2018-07-19T05:23:42.066Z,76.49
2018-07-19T05:26:13.585Z,75.31
2018-07-19T05:28:46.200Z,73.67
2018-07-19T05:31:16.944Z,71.75
2018-07-19T05:33:48.503Z,70.30
2018-07-19T05:36:19.278Z,69.99
2018-07-19T05:38:50.940Z,69.34
2018-07-19T05:41:21.473Z,69.51
2018-07-19T05:43:52.384Z,68.83
2018-07-19T05:46:24.748Z,68.25
2018-07-19T05:48:55.305Z,67.22
2018-07-19T05:51:26.331Z,66.32
2018-07-19T05:53:56.915Z,65.59
2018-07-19T05:56:27.670Z,65.55
2018-07-19T05:58:58.327Z,65.01
2018-07-19T06:01:28.880Z,64.87
2018-07-19T06:04:00.868Z,63.80
2018-07-19T06:06:32.285Z,64.50
2018-07-19T06:09:02.481Z,63.61
2018-07-19T06:11:33.256Z,63.72
2018-07-19T06:14:06.105Z,59.99
2018-07-19T06:16:36.853Z,59.63
2018-07-19T06:19:08.031Z,57.84
2018-07-19T06:21:40.076Z,55.23
2018-07-19T06:24:11.480Z,53.76
2018-07-19T06:26:42.566Z,54.01
2018-07-19T06:29:13.652Z,53.02
2018-07-19T06:31:44.587Z,51.40
2018-07-19T06:34:16.053Z,49.88
2018-07-19T06:36:46.925Z,49.04
2018-07-19T06:39:18.734Z,48.09
2018-07-19T06:41:50.089Z,46.71
2018-07-19T06:44:20.554Z,47.64
2018-07-19T06:46:51.690Z,47.03
2018-07-19T06:49:22.746Z,46.78
2018-07-19T06:51:54.031Z,46.30
2018-07-19T06:54:24.986Z,45.26
2018-07-19T06:57:01.317Z,45.89
2018-07-19T06:59:34.591Z,46.25
2018-07-19T07:02:06.937Z,45.47
2018-07-19T07:04:38.392Z,44.63
2018-07-19T07:07:09.707Z,44.83
2018-07-19T07:09:43.753Z,43.59
2018-07-19T07:12:18.352Z,42.92
2018-07-19T07:14:53.084Z,42.80
2018-07-19T07:17:24.055Z,42.51
2018-07-19T07:19:58.587Z,42.76
2018-07-19T07:22:29.901Z,42.72
2018-07-19T07:25:01.832Z,41.17
2018-07-19T07:27:34.061Z,39.68
2018-07-19T07:30:06.112Z,38.28
2018-07-19T07:32:36.968Z,38.66
2018-07-19T07:35:09.263Z,38.33
2018-07-19T07:37:40.631Z,37.03
2018-07-19T07:40:11.096Z,37.50
2018-07-19T07:42:44.042Z,36.63
2018-07-19T07:45:16.012Z,36.11
2018-07-19T07:47:47.837Z,35.94
2018-07-19T07:50:19.322Z,37.20
2018-07-19T07:52:49.645Z,37.05
2018-07-19T07:55:20.791Z,37.78
2018-07-19T07:57:52.511Z,39.82
2018-07-19T08:00:24.639Z,40.96
2018-07-19T08:02:56.464Z,41.77
2018-07-19T08:05:27.576Z,42.22
2018-07-19T08:07:58.523Z,43.10
2018-07-19T08:10:29.691Z,42.92
2018-07-19T08:13:00.521Z,39.70
2018-07-19T08:15:31.765Z,36.24
2018-07-19T08:18:03.645Z,35.69
2018-07-19T08:20:35.828Z,36.60
2018-07-19T08:23:08.080Z,35.36
2018-07-19T08:25:39.529Z,35.54
2018-07-19T08:28:10.580Z,34.80
2018-07-19T08:30:43.696Z,34.76
2018-07-19T08:33:14.754Z,33.43
2018-07-19T08:35:48.211Z,31.14
2018-07-19T08:38:19.183Z,29.81
2018-07-19T08:40:51.810Z,28.20
2018-07-19T08:43:23.819Z,27.24
2018-07-19T08:45:55.149Z,26.15
2018-07-19T08:48:26.507Z,27.16
2018-07-19T08:50:58.579Z,26.32
2018-07-19T08:53:30.851Z,25.24
2018-07-19T08:58:31.577Z,23.86
2018-07-19T09:01:02.489Z,24.18
2018-07-19T09:03:33.983Z,23.89
2018-07-19T09:06:06.028Z,23.36
2018-07-19T09:08:45.456Z,24.40
2018-07-19T09:11:18.748Z,24.51
2018-07-19T09:13:52.603Z,24.85
2018-07-19T09:16:23.860Z,24.76
2018-07-19T09:18:55.132Z,24.75
2018-07-19T09:21:31.082Z,25.17
2018-07-19T09:24:04.559Z,25.62
2018-07-19T09:26:36.229Z,25.26
2018-07-19T09:29:09.547Z,22.83
2018-07-19T09:31:40.940Z,22.62
2018-07-19T09:34:12.210Z,22.16
2018-07-19T09:36:44.047Z,21.78
2018-07-19T09:39:15.641Z,19.28
2018-07-19T09:41:48.870Z,19.96
2018-07-19T09:44:20.122Z,20.40
2018-07-19T09:46:53.159Z,20.05
2018-07-19T09:49:24.625Z,20.47
2018-07-19T09:51:57.100Z,20.18
2018-07-19T09:54:44.460Z,20.07
2018-07-19T09:57:15.959Z,19.92
2018-07-19T09:59:47.768Z,21.18
2018-07-19T10:02:20.493Z,21.55
2018-07-19T10:04:52.585Z,20.84
2018-07-19T10:07:26.576Z,20.80
2018-07-19T10:09:58.891Z,22.75
2018-07-19T10:12:33.562Z,21.64
2018-07-19T10:15:07.032Z,20.63
2018-07-19T10:17:40.109Z,19.31
2018-07-19T10:20:13.332Z,20.50
2018-07-19T10:22:46.102Z,23.29
2018-07-19T10:25:19.652Z,21.36
2018-07-19T10:27:51.085Z,18.64
2018-07-19T10:30:23.098Z,21.61
2018-07-19T10:32:55.562Z,21.91
2018-07-19T10:35:26.780Z,20.67
2018-07-19T10:37:57.906Z,18.47
2018-07-19T10:40:30.081Z,19.38
2018-07-19T10:43:01.501Z,19.92
2018-07-19T10:45:33.402Z,19.75
2018-07-19T10:48:09.768Z,19.87
2018-07-19T10:50:40.995Z,19.55
2018-07-19T10:53:11.594Z,18.45
2018-07-19T10:55:42.435Z,20.47
2018-07-19T10:58:59.376Z,20.77
2018-07-19T11:01:33.397Z,24.29
2018-07-19T11:04:04.656Z,22.92
2018-07-19T11:06:36.352Z,21.64
2018-07-19T11:09:11.344Z,22.88
2018-07-19T11:11:43.664Z,20.96
2018-07-19T11:14:15.971Z,19.73
2018-07-19T11:16:48.530Z,21.65
2018-07-19T11:19:19.790Z,19.00
2018-07-19T11:21:50.391Z,18.00
2018-07-19T11:24:25.523Z,18.44
2018-07-19T11:26:56.527Z,18.35
2018-07-19T11:29:27.856Z,18.45
2018-07-19T11:31:59.600Z,17.19
2018-07-19T11:34:31.237Z,17.58
2018-07-19T11:37:04.249Z,21.79
2018-07-19T11:39:34.960Z,20.99
2018-07-19T11:42:05.926Z,20.18
2018-07-19T11:44:37.692Z,18.48
2018-07-19T11:47:12.186Z,19.91
2018-07-19T11:49:44.623Z,19.16
2018-07-19T11:52:16.114Z,20.05
2018-07-19T11:54:49.096Z,19.61
2018-07-19T11:57:24.396Z,17.54
2018-07-19T11:59:56.384Z,17.12
2018-07-19T12:02:29.177Z,17.23
2018-07-19T12:05:00.975Z,20.72
2018-07-19T12:07:32.603Z,20.23
2018-07-19T12:10:04.742Z,18.79
2018-07-19T12:12:35.831Z,18.25
2018-07-19T12:15:07.042Z,17.63
2018-07-19T12:17:37.877Z,19.11
2018-07-19T12:20:10.153Z,22.86
2018-07-19T12:22:41.765Z,20.99
2018-07-19T12:25:12.828Z,24.27
2018-07-19T12:27:43.574Z,22.99
2018-07-19T12:30:15.661Z,22.94
2018-07-19T12:32:47.337Z,25.58
2018-07-19T12:35:20.553Z,23.64
2018-07-19T12:37:53.005Z,25.53
2018-07-19T12:40:27.283Z,22.05
2018-07-19T12:42:58.427Z,20.57
2018-07-19T12:45:31.749Z,19.57
2018-07-19T12:48:03.133Z,19.11
2018-07-19T12:50:35.208Z,21.29
2018-07-19T12:53:08.731Z,21.97
2018-07-19T12:55:40.330Z,23.40
2018-07-19T12:58:11.623Z,21.93
2018-07-19T13:00:42.813Z,21.71
2018-07-19T13:03:13.922Z,20.98
2018-07-19T13:05:44.999Z,22.22
2018-07-19T13:08:16.273Z,19.68
2018-07-19T13:10:49.062Z,21.01
2018-07-19T13:13:21.702Z,20.92
2018-07-19T13:15:53.594Z,20.36
2018-07-19T13:18:24.387Z,22.77
2018-07-19T13:20:57.019Z,24.44
2018-07-19T13:23:29.584Z,22.97
2018-07-19T13:26:04.008Z,23.56
2018-07-19T13:28:36.258Z,23.88
2018-07-19T13:31:12.600Z,21.70
2018-07-19T13:33:43.838Z,21.86
2018-07-19T13:36:14.881Z,20.47
2018-07-19T13:38:47.209Z,20.83
2018-07-19T13:41:18.720Z,24.12
2018-07-19T13:49:22.966Z,24.34
2018-07-19T13:51:53.895Z,22.60
2018-07-19T13:54:43.342Z,22.03
2018-07-19T13:57:14.526Z,23.70
2018-07-19T13:59:45.957Z,23.26
2018-07-19T14:02:16.732Z,25.53
2018-07-19T14:04:47.895Z,25.16
2018-07-19T14:07:18.610Z,24.35
2018-07-19T14:09:49.642Z,25.30
2018-07-19T14:12:21.050Z,25.73
2018-07-19T14:14:51.666Z,25.47
2018-07-19T14:17:22.319Z,26.63
2018-07-19T14:19:53.154Z,28.71
2018-07-19T14:22:23.642Z,29.03
2018-07-19T14:24:54.191Z,29.43
2018-07-19T14:27:24.805Z,29.38
2018-07-19T14:29:55.950Z,29.83
2018-07-19T14:32:28.138Z,30.60
2018-07-19T14:34:59.173Z,31.13
2018-07-19T14:37:29.909Z,31.42
2018-07-19T14:40:00.598Z,31.45
2018-07-19T14:42:31.117Z,33.33
2018-07-19T14:45:01.796Z,33.80
2018-07-19T14:47:32.642Z,33.84
2018-07-19T14:50:04.585Z,34.36
2018-07-19T14:52:35.352Z,36.20
2018-07-19T14:55:06.799Z,35.83
2018-07-19T14:57:37.551Z,36.22
2018-07-19T15:00:09.088Z,37.52
2018-07-19T15:02:40.198Z,37.96
2018-07-19T15:05:11.436Z,39.88
2018-07-19T15:07:44.018Z,37.75
2018-07-19T15:10:14.955Z,35.58
2018-07-19T15:12:45.762Z,34.33
2018-07-19T15:15:16.620Z,34.11
2018-07-19T15:17:47.472Z,34.16
2018-07-19T15:20:18.067Z,35.04
2018-07-19T15:22:49.067Z,34.45
2018-07-19T15:25:22.033Z,37.39
2018-07-19T15:27:54.017Z,39.04
2018-07-19T15:30:25.775Z,40.58
2018-07-19T15:32:56.541Z,38.53
2018-07-19T15:35:28.364Z,37.66
2018-07-19T15:37:59.125Z,35.94
2018-07-19T15:40:31.170Z,33.70
2018-07-19T15:43:04.245Z,34.00
2018-07-19T15:45:37.619Z,35.14
2018-07-19T15:48:09.558Z,33.85
2018-07-19T15:50:41.036Z,34.71
2018-07-19T15:53:12.215Z,35.16
2018-07-19T15:55:43.050Z,35.84
2018-07-19T15:58:14.544Z,38.00
2018-07-19T16:00:46.557Z,38.46
2018-07-19T16:03:17.252Z,38.13
2018-07-19T16:05:47.774Z,39.62
2018-07-19T16:08:18.993Z,38.81
2018-07-19T16:10:50.041Z,38.95
2018-07-19T16:13:20.797Z,38.46
2018-07-19T16:15:51.617Z,38.12
2018-07-19T16:18:22.612Z,38.96
2018-07-19T16:20:53.631Z,38.10
2018-07-19T16:23:24.401Z,38.89
2018-07-19T16:25:54.455Z,39.08
2018-07-19T16:28:25.577Z,38.96
2018-07-19T16:30:56.379Z,38.80
2018-07-19T16:33:26.993Z,40.17
2018-07-19T16:35:58.931Z,39.29
2018-07-19T16:38:34.435Z,38.97
2018-07-19T16:41:05.772Z,40.64
2018-07-19T16:43:37.705Z,39.64
2018-07-19T16:46:08.805Z,40.38
2018-07-19T16:48:39.361Z,40.96
2018-07-19T16:51:10.395Z,42.20
2018-07-19T16:53:43.120Z,40.95
2018-07-19T16:56:13.731Z,41.63
2018-07-19T16:58:44.405Z,41.61
2018-07-19T17:01:15.422Z,41.26
2018-07-19T17:03:45.497Z,39.03
2018-07-19T17:06:16.684Z,38.90
2018-07-19T17:08:47.266Z,39.47
2018-07-19T17:11:18.349Z,39.94
2018-07-19T17:13:51.381Z,39.94
2018-07-19T17:16:22.977Z,39.81
2018-07-19T17:18:53.657Z,38.31
2018-07-19T17:21:24.528Z,40.04
2018-07-19T17:23:55.102Z,39.32
2018-07-19T17:26:25.800Z,39.79
2018-07-19T17:28:56.533Z,39.06
2018-07-19T17:31:28.346Z,39.00
2018-07-19T17:33:59.198Z,38.24
2018-07-19T17:36:29.333Z,38.57
2018-07-19T17:39:00.373Z,38.46
2018-07-19T17:41:32.237Z,39.73
2018-07-19T17:44:03.065Z,40.56
2018-07-19T17:46:34.377Z,40.46
2018-07-19T17:49:07.076Z,40.20
2018-07-19T17:51:39.408Z,40.62
2018-07-19T17:54:10.433Z,40.64
2018-07-19T17:56:41.541Z,39.84
2018-07-19T17:59:12.885Z,40.07
2018-07-19T18:01:43.927Z,40.00
2018-07-19T18:04:15.655Z,41.22
2018-07-19T18:06:47.578Z,44.44
2018-07-19T18:09:18.960Z,44.18
2018-07-19T18:11:49.823Z,45.39
2018-07-19T18:14:20.852Z,46.07
2018-07-19T18:16:52.261Z,46.31
2018-07-19T18:19:23.863Z,47.03
2018-07-19T18:21:54.755Z,46.34
2018-07-19T18:24:26.267Z,42.23
2018-07-19T18:26:58.632Z,42.50
2018-07-19T18:29:30.217Z,42.55
2018-07-19T18:32:00.391Z,42.82
2018-07-19T18:34:31.267Z,43.56
2018-07-19T18:37:02.210Z,45.08
2018-07-19T18:39:33.588Z,46.13
2018-07-19T18:42:05.316Z,48.05
2018-07-19T18:44:38.346Z,49.47
2018-07-19T18:47:09.839Z,50.05
2018-07-19T18:49:42.628Z,51.06
2018-07-19T18:52:14.307Z,51.67
2018-07-19T18:54:45.882Z,51.65
2018-07-19T18:57:17.952Z,51.29
2018-07-19T18:59:52.580Z,51.15
2018-07-19T19:02:24.306Z,52.13
2018-07-19T19:04:56.272Z,52.21
2018-07-19T19:07:29.076Z,52.07
2018-07-19T19:10:00.703Z,52.22
2018-07-19T19:12:32.431Z,52.23
2018-07-19T19:15:05.335Z,51.49
2018-07-19T19:17:39.353Z,53.06
2018-07-19T19:20:11.929Z,53.52
2018-07-19T19:22:44.108Z,53.65
2018-07-19T19:25:17.108Z,54.58
2018-07-19T19:27:49.416Z,51.52
2018-07-19T19:30:26.006Z,53.70
2018-07-19T19:32:57.563Z,54.55
2018-07-19T19:35:30.860Z,54.74
2018-07-19T19:38:07.931Z,55.96
2018-07-19T19:40:41.167Z,56.51
2018-07-19T19:43:13.975Z,57.82
2018-07-19T19:45:48.082Z,58.27
2018-07-19T19:48:20.845Z,58.95
2018-07-19T19:50:53.613Z,59.77
2018-07-19T19:53:28.405Z,59.52
2018-07-19T19:56:01.401Z,59.90
2018-07-19T19:58:33.709Z,59.33
2018-07-19T20:01:05.526Z,59.29
2018-07-19T20:03:37.959Z,58.38
2018-07-19T20:06:11.712Z,58.95
2018-07-19T20:08:45.494Z,58.51
2018-07-19T20:11:19.214Z,59.29
2018-07-19T20:13:52.685Z,60.06
2018-07-19T20:16:24.578Z,60.84
2018-07-19T20:18:56.307Z,61.09
2018-07-19T20:21:27.927Z,61.17
2018-07-19T20:24:00.956Z,61.45
2018-07-19T20:26:33.418Z,61.96
2018-07-19T20:29:04.786Z,62.28
2018-07-19T20:31:36.852Z,62.95
2018-07-19T20:34:09.727Z,63.20
2018-07-19T20:36:41.473Z,63.38
2018-07-19T20:39:13.659Z,64.45
2018-07-19T20:41:46.807Z,65.49
2018-07-19T20:44:19.095Z,65.68
2018-07-19T20:46:51.154Z,65.07
2018-07-19T20:49:22.842Z,64.21
2018-07-19T20:51:55.087Z,64.54
2018-07-19T20:54:27.842Z,63.86
2018-07-19T20:57:00.165Z,64.65
2018-07-19T20:59:31.239Z,63.34
2018-07-19T21:02:03.410Z,63.89
2018-07-19T21:04:36.112Z,63.82
2018-07-19T21:07:07.004Z,64.46
2018-07-19T21:09:38.384Z,64.67
2018-07-19T21:12:13.658Z,64.11
2018-07-19T21:14:47.475Z,64.46
2018-07-19T21:17:19.134Z,64.62
2018-07-19T21:19:50.317Z,64.99
2018-07-19T21:22:21.274Z,64.65
2018-07-19T21:24:52.495Z,64.54
2018-07-19T21:27:24.790Z,64.84
2018-07-19T21:29:55.701Z,65.20
2018-07-19T21:32:26.401Z,65.41
2018-07-19T21:34:57.235Z,65.68
2018-07-19T21:37:28.186Z,65.85
2018-07-19T21:39:58.917Z,66.12
2018-07-19T21:42:29.811Z,66.11
2018-07-19T21:45:02.398Z,66.39
2018-07-19T21:47:34.740Z,67.17
2018-07-19T21:50:05.881Z,67.67
2018-07-19T21:52:44.944Z,70.01
2018-07-19T21:55:16.020Z,70.73
2018-07-19T21:57:47.052Z,70.54
2018-07-19T22:00:19.648Z,70.64
2018-07-19T22:02:50.840Z,70.60
2018-07-19T22:05:21.938Z,70.55
2018-07-19T22:07:52.689Z,70.24
2018-07-19T22:10:25.356Z,70.40
2018-07-19T22:12:57.035Z,70.58
2018-07-19T22:15:28.470Z,70.00
2018-07-19T22:18:00.740Z,69.67
2018-07-19T22:20:31.564Z,69.76
2018-07-19T22:23:02.717Z,70.27
2018-07-19T22:25:34.208Z,69.71
2018-07-19T22:28:05.544Z,70.47
2018-07-19T22:30:36.438Z,71.02
2018-07-19T22:33:06.659Z,71.89
2018-07-19T22:35:38.780Z,71.94
2018-07-19T22:38:11.510Z,71.92
2018-07-19T22:40:42.212Z,72.22
2018-07-19T22:43:13.309Z,72.34
2018-07-19T22:45:44.059Z,72.28
2018-07-19T22:48:15.164Z,72.04
2018-07-19T22:50:46.097Z,71.67
2018-07-19T22:53:17.435Z,71.97
2018-07-19T22:55:48.525Z,72.05
2018-07-19T22:58:19.349Z,72.06
2018-07-19T23:00:50.193Z,72.31
2018-07-19T23:03:21.213Z,72.25
2018-07-19T23:05:52.164Z,72.43
2018-07-19T23:08:23.115Z,72.45
2018-07-19T23:10:53.978Z,72.85
2018-07-19T23:13:25.584Z,73.44
2018-07-19T23:15:57.192Z,73.62
2018-07-19T23:18:28.022Z,73.68
2018-07-19T23:20:58.790Z,73.56
2018-07-19T23:23:29.497Z,73.37
2018-07-19T23:26:00.617Z,74.54
2018-07-19T23:28:31.583Z,75.68
2018-07-19T23:31:02.313Z,76.20
2018-07-19T23:33:34.265Z,76.34
2018-07-19T23:36:07.321Z,75.71
2018-07-19T23:38:42.496Z,75.74
2018-07-19T23:41:20.222Z,75.62
2018-07-19T23:43:55.153Z,76.36
2018-07-19T23:46:31.633Z,76.82
2018-07-19T23:49:08.256Z,76.92
2018-07-19T23:51:39.701Z,76.09
2018-07-19T23:54:10.589Z,76.01
2018-07-19T23:56:41.919Z,76.07
2018-07-19T23:59:13.682Z,75.90
